Colfax, Iowa
Current Conditions -  °F | °C
As of 8:55 AM on Wednesday 22 Oct 2014 (Local Time) from KTNU Reporting Station
Clear Clear  
Wind Chill: 36°   Ceiling: Unl
Heat Index: 43°   Visibility: 9mi
Dew Point: 39°   Wind: 14mph
Humidity: 87%   Direction: 140°SE
Pressure: 30.27"   Gusts: NA
Location:  41.68°N, 93.25°W
Report Text: KTNU 221355Z AUTO 14012KT 9SM CLR 06/04 A3027 RMK AO2
Loading
Personal Weather Stations






























Interactive Weather Map
Tropical Storm Tracking
New forecast layout! Learn more

10-Day Weather Forecast

Advertisements
Track Severe Weather on mobile